Time;durP1;ratioP1;P1;durP2;ratioP2;P2;SDS_P1;SDS_P2;PMS_P1;PMS_P2;Temp;Humidity;BMP_temperature;BMP_pressure;BME280_temperature;BME280_humidity;BME280_pressure;Samples;Min_cycle;Max_cycle;Signal;HPM_P1;HPM_P2
2023/06/04 00:02:20;;;;;;;2.13;0.80;;;;;;;21.36;30.30;101790.16;5033820;28;20037;-57
2023/06/04 00:04:45;;;;;;;0.70;0.40;;;;;;;21.32;29.99;101788.81;5033681;28;20049;-57
2023/06/04 00:07:10;;;;;;;1.23;0.80;;;;;;;21.27;30.53;101779.47;5033348;28;20095;-57
2023/06/04 00:09:36;;;;;;;2.63;0.65;;;;;;;21.21;30.43;101788.34;5033848;28;20055;-58
2023/06/04 00:12:01;;;;;;;2.03;0.57;;;;;;;21.17;30.13;101785.09;5034230;28;20500;-57
2023/06/04 00:14:27;;;;;;;0.82;0.50;;;;;;;21.13;30.52;101785.66;5033575;28;20026;-57
2023/06/04 00:16:52;;;;;;;1.25;0.52;;;;;;;21.08;30.54;101786.16;5033092;28;20038;-57
2023/06/04 00:19:17;;;;;;;1.92;0.43;;;;;;;21.02;30.75;101780.53;5032660;28;20120;-57
2023/06/04 00:21:44;;;;;;;0.60;0.60;;;;;;;20.95;30.84;101785.81;5033619;28;20036;-58
2023/06/04 00:24:12;;;;;;;0.52;0.45;;;;;;;20.87;30.92;101780.38;5033850;28;20025;-57
2023/06/04 00:26:37;;;;;;;2.22;0.70;;;;;;;20.85;30.87;101779.72;5033180;28;20029;-57
2023/06/04 00:29:03;;;;;;;1.52;0.52;;;;;;;20.78;30.65;101779.53;5033340;28;20063;-57
2023/06/04 00:31:28;;;;;;;4.38;0.80;;;;;;;20.70;30.71;101782.28;5033648;28;20034;-57
2023/06/04 00:33:53;;;;;;;4.80;0.60;;;;;;;20.68;30.96;101783.47;5033392;28;20052;-57
2023/06/04 00:36:19;;;;;;;2.20;0.73;;;;;;;20.65;31.24;101778.38;5033304;28;20053;-57
2023/06/04 00:38:44;;;;;;;0.65;0.63;;;;;;;20.64;31.55;101780.22;5033289;28;20531;-58
2023/06/04 00:41:09;;;;;;;3.05;0.68;;;;;;;20.61;31.34;101777.00;5031874;28;20041;-57
2023/06/04 00:43:35;;;;;;;2.00;0.95;;;;;;;20.55;31.12;101777.69;5033338;28;20034;-57
2023/06/04 00:46:02;;;;;;;1.05;0.60;;;;;;;20.50;31.24;101780.06;5033616;28;20052;-57
2023/06/04 00:48:30;;;;;;;1.55;0.60;;;;;;;20.42;31.67;101780.06;5033915;28;20040;-57
2023/06/04 00:50:57;;;;;;;4.72;0.68;;;;;;;20.37;31.50;101785.19;5032155;28;20033;-57
2023/06/04 00:53:24;;;;;;;1.52;0.90;;;;;;;20.30;31.92;101766.78;5033002;28;20040;-57
2023/06/04 00:55:50;;;;;;;0.50;0.43;;;;;;;20.28;31.81;101776.16;5032972;28;20042;-57
2023/06/04 00:58:16;;;;;;;2.55;0.60;;;;;;;20.22;31.87;101774.94;5031599;28;20088;-57
2023/06/04 01:00:42;;;;;;;1.30;0.50;;;;;;;20.20;31.64;101774.25;5032851;28;20025;-57
2023/06/04 01:03:17;;;;;;;1.88;0.93;;;;;;;20.19;32.32;101771.69;5033363;28;20017;-57
2023/06/04 01:06:21;;;;;;;2.45;0.82;;;;;;;20.13;32.17;101773.22;5032738;28;20037;-57
2023/06/04 01:08:49;;;;;;;2.85;0.80;;;;;;;20.02;31.90;101781.69;5012374;28;20099;-57
2023/06/04 01:11:14;;;;;;;3.72;0.63;;;;;;;19.95;32.28;101780.66;5031739;28;20512;-57
2023/06/04 01:13:40;;;;;;;1.90;0.80;;;;;;;19.92;32.60;101781.00;5032794;28;20037;-57
2023/06/04 01:16:05;;;;;;;2.22;0.65;;;;;;;19.91;32.54;101776.56;5033358;28;20049;-57
2023/06/04 01:18:32;;;;;;;2.00;0.90;;;;;;;19.96;32.54;101779.63;5033597;28;20376;-57
2023/06/04 01:21:01;;;;;;;1.88;0.80;;;;;;;19.82;32.05;101752.25;5035736;28;20033;-57
2023/06/04 01:23:58;;;;;;;1.40;0.80;;;;;;;20.07;32.16;101790.19;5036788;28;20037;-57
2023/06/04 01:26:25;;;;;;;16.90;1.48;;;;;;;20.11;32.11;101786.13;5030662;28;20033;-57
2023/06/04 01:28:51;;;;;;;1.45;0.57;;;;;;;20.00;32.16;101778.28;5036708;28;20059;-57
2023/06/04 01:31:16;;;;;;;2.33;0.80;;;;;;;20.19;32.36;101790.72;5035683;28;20556;-57
2023/06/04 01:33:42;;;;;;;1.38;0.55;;;;;;;20.20;32.14;101789.72;5036607;28;20112;-57
2023/06/04 01:36:10;;;;;;;1.33;1.08;;;;;;;20.19;32.17;101788.00;5036632;28;20128;-57
2023/06/04 01:38:36;;;;;;;1.10;1.00;;;;;;;20.06;31.85;101766.75;5036523;28;20095;-57
2023/06/04 01:41:02;;;;;;;2.47;0.90;;;;;;;20.21;31.98;101796.88;5035410;28;20038;-57
2023/06/04 01:43:28;;;;;;;3.65;0.75;;;;;;;20.21;31.99;101784.09;5036304;28;20033;-57
2023/06/04 01:45:54;;;;;;;2.90;0.90;;;;;;;20.22;32.27;101784.94;5036637;28;20052;-57
2023/06/04 01:48:20;;;;;;;0.93;0.50;;;;;;;20.22;31.92;101783.09;5036454;28;20037;-57
2023/06/04 01:50:45;;;;;;;2.90;0.98;;;;;;;19.93;32.56;101733.75;5035139;28;20088;-57
2023/06/04 01:53:10;;;;;;;2.42;1.20;;;;;;;20.22;32.27;101783.09;5036181;28;20069;-57
2023/06/04 01:55:37;;;;;;;1.65;0.70;;;;;;;20.22;32.27;101780.38;5034702;28;20095;-57
2023/06/04 01:58:03;;;;;;;0.98;0.68;;;;;;;20.21;31.99;101780.56;5035031;28;20042;-57
2023/06/04 02:00:29;;;;;;;1.20;0.80;;;;;;;20.16;32.30;101778.31;5017314;28;20029;-57
2023/06/04 02:02:55;;;;;;;1.58;1.25;;;;;;;19.99;32.08;101756.72;5016274;28;20037;-57
2023/06/04 02:05:21;;;;;;;2.22;0.82;;;;;;;19.95;32.19;101760.78;5016214;28;20038;-57
2023/06/04 02:07:47;;;;;;;1.75;0.70;;;;;;;20.10;32.09;101795.31;5016452;28;20034;-57
2023/06/04 02:10:15;;;;;;;1.73;1.08;;;;;;;20.07;32.32;101790.19;5015236;28;20084;-57
2023/06/04 02:12:53;;;;;;;1.00;0.80;;;;;;;20.07;32.30;101790.19;5016281;28;20072;-57
2023/06/04 02:15:19;;;;;;;2.20;0.90;;;;;;;20.06;32.80;101796.69;5016849;28;20489;-57
2023/06/04 02:17:45;;;;;;;2.88;0.85;;;;;;;20.05;32.42;101792.25;5014645;28;20063;-57
2023/06/04 02:20:11;;;;;;;1.63;0.82;;;;;;;20.03;32.77;101796.16;5016082;28;20033;-57
2023/06/04 02:22:36;;;;;;;3.25;0.75;;;;;;;20.02;32.57;101794.44;5016094;28;20041;-57
2023/06/04 02:25:02;;;;;;;2.75;0.65;;;;;;;20.01;32.36;101800.91;5015854;28;20057;-57
2023/06/04 02:27:28;;;;;;;3.10;1.00;;;;;;;19.99;32.31;101792.06;5016806;28;20068;-57
2023/06/04 02:29:53;;;;;;;2.05;0.80;;;;;;;19.97;32.74;101794.09;5015710;28;20161;-57
2023/06/04 02:32:18;;;;;;;1.70;0.82;;;;;;;19.96;32.49;101800.56;5015603;28;20042;-57
2023/06/04 02:34:44;;;;;;;2.08;0.88;;;;;;;19.93;32.40;101787.31;5015723;28;20057;-57
2023/06/04 02:37:10;;;;;;;1.52;0.80;;;;;;;19.88;32.27;101787.78;5015774;28;20524;-57
2023/06/04 02:39:35;;;;;;;1.27;0.80;;;;;;;19.86;32.57;101792.53;5014936;28;20482;-57
2023/06/04 02:42:01;;;;;;;3.08;0.90;;;;;;;19.85;32.65;101796.25;5015851;28;20052;-57
2023/06/04 02:44:26;;;;;;;1.35;0.63;;;;;;;19.84;32.65;101797.31;5015608;28;20547;-57
2023/06/04 02:46:52;;;;;;;1.58;0.57;;;;;;;19.83;32.67;101801.03;5015780;28;20413;-57
2023/06/04 02:49:17;;;;;;;1.83;1.20;;;;;;;19.82;32.95;101796.59;5015807;28;20037;-57
2023/06/04 02:51:43;;;;;;;1.75;1.00;;;;;;;19.79;33.00;101799.66;5015647;28;20022;-57
2023/06/04 02:54:09;;;;;;;1.23;0.77;;;;;;;19.78;32.94;101797.97;5015918;28;20037;-58
2023/06/04 02:56:36;;;;;;;4.78;0.80;;;;;;;19.75;32.63;101801.00;5014989;28;20034;-57
2023/06/04 02:59:02;;;;;;;1.95;1.02;;;;;;;19.73;32.77;101803.03;5015101;28;20497;-56
2023/06/04 03:01:28;;;;;;;5.30;1.08;;;;;;;19.71;32.85;101805.06;5015508;28;20034;-57
2023/06/04 03:03:54;;;;;;;1.45;0.80;;;;;;;19.70;33.62;101808.81;5015631;28;20048;-57
2023/06/04 03:06:20;;;;;;;1.27;0.82;;;;;;;19.68;33.39;101805.41;5015694;28;20041;-57
2023/06/04 03:08:50;;;;;;;3.13;0.90;;;;;;;19.67;32.99;101798.25;5018304;28;20103;-57
2023/06/04 03:11:15;;;;;;;3.67;0.88;;;;;;;19.64;33.52;101804.03;5033707;28;20034;-57
2023/06/04 03:13:41;;;;;;;1.85;0.68;;;;;;;19.60;33.19;101802.63;5033538;28;20037;-57
2023/06/04 03:16:10;;;;;;;1.15;0.80;;;;;;;19.57;33.93;101798.38;5034571;28;20124;-57
2023/06/04 03:18:37;;;;;;;1.35;0.85;;;;;;;19.56;32.81;101806.72;5035583;28;20064;-57
2023/06/04 03:21:02;;;;;;;0.82;0.70;;;;;;;19.40;33.28;101777.56;5034642;28;20048;-57
2023/06/04 03:23:28;;;;;;;1.38;0.85;;;;;;;19.51;33.55;101803.63;5034344;28;20037;-57
2023/06/04 03:25:53;;;;;;;1.63;0.70;;;;;;;19.49;33.58;101805.66;5034511;28;20048;-57
2023/06/04 03:28:18;;;;;;;1.95;0.80;;;;;;;19.48;34.10;101798.53;5034443;28;20033;-57
2023/06/04 03:30:44;;;;;;;0.57;0.50;;;;;;;19.44;33.57;101803.44;5034199;28;20021;-57
2023/06/04 03:33:09;;;;;;;1.55;0.93;;;;;;;19.42;33.34;101797.31;5033529;28;20508;-57
2023/06/04 03:35:35;;;;;;;1.25;0.70;;;;;;;19.41;33.40;101802.91;5034218;28;20060;-57
2023/06/04 03:38:00;;;;;;;0.60;0.52;;;;;;;19.38;34.33;101795.91;5034190;28;20041;-57
2023/06/04 03:40:25;;;;;;;2.05;1.25;;;;;;;19.36;34.14;101788.91;5033187;28;20037;-57
2023/06/04 03:42:51;;;;;;;2.00;1.08;;;;;;;19.34;34.13;101797.25;5034307;28;20116;-57
2023/06/04 03:45:16;;;;;;;2.65;1.10;;;;;;;19.32;34.45;101803.84;5034861;28;20021;-57
2023/06/04 03:47:42;;;;;;;7.43;0.68;;;;;;;19.31;34.36;101802.16;5032779;28;20124;-57
2023/06/04 03:50:07;;;;;;;1.70;1.17;;;;;;;19.28;33.84;101805.19;5034075;28;20493;-57
2023/06/04 03:52:33;;;;;;;2.80;1.27;;;;;;;19.26;33.95;101797.22;5034246;28;20069;-57
2023/06/04 03:54:59;;;;;;;2.78;1.15;;;;;;;19.24;34.35;101799.22;5032717;28;20071;-58
2023/06/04 03:57:24;;;;;;;1.48;0.75;;;;;;;19.25;34.49;101792.78;5034083;28;20038;-57
2023/06/04 03:59:50;;;;;;;1.88;0.75;;;;;;;18.90;34.46;101744.88;5034013;28;20043;-57
2023/06/04 04:02:16;;;;;;;3.03;1.00;;;;;;;19.22;34.59;101808.53;5033960;28;20044;-57
2023/06/04 04:04:42;;;;;;;2.78;0.95;;;;;;;19.22;34.46;101797.66;5033609;28;20417;-57
2023/06/04 04:07:07;;;;;;;1.75;0.90;;;;;;;19.23;34.31;101804.81;5033859;28;20041;-57
2023/06/04 04:09:33;;;;;;;1.05;0.68;;;;;;;19.19;34.92;101794.28;5035081;28;20029;-57
2023/06/04 04:11:59;;;;;;;1.85;1.00;;;;;;;19.21;34.55;101801.41;5032481;28;20489;-57
2023/06/04 04:14:24;;;;;;;6.45;1.08;;;;;;;19.22;34.50;101803.09;5033728;28;20036;-57
2023/06/04 04:16:50;;;;;;;3.72;1.17;;;;;;;19.21;34.72;101801.41;5038014;28;20047;-57
2023/06/04 04:19:16;;;;;;;3.20;1.00;;;;;;;19.28;35.04;101805.19;5021743;28;20124;-57
2023/06/04 04:21:41;;;;;;;4.43;0.95;;;;;;;19.32;35.50;101803.84;5033505;28;20045;-57
2023/06/04 04:24:07;;;;;;;1.50;1.00;;;;;;;19.38;35.10;101805.91;5033735;28;20033;-57
2023/06/04 04:26:32;;;;;;;2.25;0.80;;;;;;;19.42;34.82;101804.59;5033312;28;20079;-57
2023/06/04 04:28:59;;;;;;;3.03;1.15;;;;;;;19.48;35.32;101809.41;5033475;28;20037;-57
2023/06/04 04:31:30;;;;;;;2.15;0.98;;;;;;;19.53;34.76;101801.59;5033501;28;20053;-57
2023/06/04 04:33:57;;;;;;;2.95;1.17;;;;;;;19.57;34.94;101809.25;5033687;28;20425;-57
2023/06/04 04:36:22;;;;;;;2.45;1.33;;;;;;;19.63;35.20;101805.88;5033406;28;20458;-57
2023/06/04 04:38:54;;;;;;;1.55;1.10;;;;;;;19.69;35.12;101813.38;5032997;28;20068;-57
2023/06/04 04:41:22;;;;;;;3.92;1.45;;;;;;;19.76;35.46;101805.44;5033102;28;20072;-57
2023/06/04 04:43:49;;;;;;;2.97;0.75;;;;;;;19.82;35.15;101801.22;5033131;28;20516;-57
2023/06/04 04:46:14;;;;;;;5.00;1.50;;;;;;;19.89;35.66;101808.53;5033757;28;20037;-57
2023/06/04 04:48:42;;;;;;;3.17;1.10;;;;;;;19.64;35.41;101755.94;5033451;28;20037;-57
2023/06/04 04:51:07;;;;;;;4.65;1.10;;;;;;;20.05;35.53;101814.00;5033392;28;20021;-57
2023/06/04 04:53:32;;;;;;;4.70;1.08;;;;;;;20.12;35.57;101809.63;5032186;28;20042;-57
2023/06/04 04:55:58;;;;;;;3.60;1.85;;;;;;;20.20;35.17;101811.50;5032711;28;20116;-58
2023/06/04 04:58:23;;;;;;;5.13;1.13;;;;;;;20.28;35.43;101815.09;5032880;28;20046;-57
2023/06/04 05:00:49;;;;;;;1.90;1.20;;;;;;;20.37;35.62;101817.84;5033269;28;20032;-57
2023/06/04 05:03:15;;;;;;;2.80;1.13;;;;;;;20.47;35.20;101813.06;5033475;28;20037;-57
2023/06/04 05:05:40;;;;;;;2.33;1.20;;;;;;;20.55;35.46;101821.25;5032923;28;20041;-57
2023/06/04 05:08:05;;;;;;;1.88;0.95;;;;;;;20.64;35.07;101825.66;5032666;28;20063;-57
2023/06/04 05:10:31;;;;;;;2.45;0.90;;;;;;;20.73;35.14;101821.94;5033011;28;20039;-57
2023/06/04 05:12:58;;;;;;;2.67;0.93;;;;;;;20.81;35.23;101817.34;5033084;28;20473;-57
2023/06/04 05:15:26;;;;;;;1.00;0.93;;;;;;;20.92;35.15;101813.41;5033152;28;20105;-57
2023/06/04 05:17:56;;;;;;;1.90;0.82;;;;;;;21.02;35.21;101814.06;5033017;28;20034;-57
2023/06/04 05:20:22;;;;;;;2.72;1.27;;;;;;;21.12;35.05;101819.34;5033026;28;20492;-57
2023/06/04 05:22:47;;;;;;;1.23;1.02;;;;;;;21.21;34.72;101816.47;5033064;28;20034;-57
2023/06/04 05:25:14;;;;;;;1.10;1.00;;;;;;;21.32;34.84;101818.81;5033337;28;20485;-57
2023/06/04 05:27:39;;;;;;;1.73;1.00;;;;;;;21.42;35.37;101824.91;5033178;28;20029;-57
2023/06/04 05:30:06;;;;;;;6.22;1.63;;;;;;;21.52;35.59;101823.84;5033677;28;20473;-57
2023/06/04 05:32:32;;;;;;;2.22;1.42;;;;;;;21.62;34.71;101822.59;5032599;28;20045;-57
2023/06/04 05:34:58;;;;;;;2.38;1.38;;;;;;;21.73;35.28;101822.22;5031526;28;20990;-57
2023/06/04 05:37:27;;;;;;;2.20;1.38;;;;;;;21.84;35.43;101820.97;5032914;28;20405;-57
2023/06/04 05:40:05;;;;;;;1.15;0.85;;;;;;;21.96;34.72;101816.84;5032660;28;20068;-58
2023/06/04 05:42:30;;;;;;;2.30;1.00;;;;;;;22.13;35.03;101809.41;5033091;28;20029;-57
2023/06/04 05:44:56;;;;;;;1.73;1.05;;;;;;;22.30;35.15;101816.47;5032114;28;20439;-57
2023/06/04 05:47:22;;;;;;;2.33;1.33;;;;;;;22.44;34.53;101812.97;5032445;28;20041;-57
2023/06/04 05:49:47;;;;;;;4.82;1.23;;;;;;;22.58;34.16;101812.97;5032532;28;20041;-56
2023/06/04 05:52:13;;;;;;;1.77;1.35;;;;;;;22.76;34.12;101822.78;5032678;28;20037;-57
2023/06/04 05:54:38;;;;;;;2.45;1.38;;;;;;;22.88;34.50;101815.84;5032688;28;20096;-57
2023/06/04 05:57:05;;;;;;;4.43;1.10;;;;;;;23.02;33.57;101820.50;5032897;28;20049;-57
2023/06/04 05:59:30;;;;;;;3.70;1.20;;;;;;;23.13;33.57;101814.56;5032462;28;20390;-57
2023/06/04 06:01:56;;;;;;;4.20;1.23;;;;;;;23.24;33.66;101821.44;5032503;28;20100;-57
2023/06/04 06:04:22;;;;;;;1.10;1.00;;;;;;;23.32;33.43;101824.09;5032297;28;20420;-57
2023/06/04 06:06:48;;;;;;;3.47;1.23;;;;;;;23.38;33.16;101826.97;5035673;28;20112;-57
2023/06/04 06:09:14;;;;;;;2.42;1.20;;;;;;;23.45;33.29;101829.81;5036249;28;20452;-57
2023/06/04 06:11:40;;;;;;;3.08;1.48;;;;;;;23.55;34.39;101830.34;5036040;28;20041;-57
2023/06/04 06:14:06;;;;;;;6.25;1.92;;;;;;;23.64;33.27;101838.28;5035979;28;20382;-58
2023/06/04 06:16:32;;;;;;;4.07;1.60;;;;;;;23.76;33.52;101824.94;5036034;28;20523;-57
2023/06/04 06:18:57;;;;;;;4.18;1.52;;;;;;;23.87;33.48;101831.84;5036210;28;20041;-57
2023/06/04 06:21:23;;;;;;;4.40;1.48;;;;;;;23.99;33.61;101835.75;5036171;28;20052;-57
2023/06/04 06:23:48;;;;;;;2.78;1.48;;;;;;;24.10;33.58;101836.16;5035610;28;20535;-58
2023/06/04 06:26:14;;;;;;;4.78;1.67;;;;;;;24.21;33.22;101841.13;5035927;28;20068;-57
2023/06/04 06:28:39;;;;;;;4.07;1.55;;;;;;;24.33;32.77;101844.22;5035683;28;20516;-57
2023/06/04 06:31:05;;;;;;;2.05;1.33;;;;;;;24.42;32.48;101839.44;5035697;28;20045;-57
2023/06/04 06:33:31;;;;;;;3.85;1.20;;;;;;;24.51;32.41;101841.84;5036102;28;20147;-57
2023/06/04 06:35:59;;;;;;;1.83;1.23;;;;;;;24.69;32.49;101847.75;5035061;28;20046;-57
2023/06/04 06:38:25;;;;;;;2.17;1.30;;;;;;;24.83;32.33;101846.00;5035347;28;20048;-57
2023/06/04 06:40:51;;;;;;;1.38;1.17;;;;;;;24.96;31.96;101842.53;5035257;28;20045;-57
2023/06/04 06:43:16;;;;;;;2.28;1.35;;;;;;;25.09;32.46;101845.38;5035065;28;20065;-56
2023/06/04 06:45:42;;;;;;;6.00;1.30;;;;;;;25.18;32.16;101846.94;5033934;28;20112;-56
2023/06/04 06:48:07;;;;;;;2.88;1.55;;;;;;;25.26;31.95;101841.28;5035800;28;20474;-57
2023/06/04 06:50:35;;;;;;;3.72;1.60;;;;;;;25.38;32.01;101843.25;5034216;28;20033;-57
2023/06/04 06:53:01;;;;;;;5.03;1.50;;;;;;;25.54;31.65;101847.63;5035119;28;20132;-56
2023/06/04 06:55:26;;;;;;;2.25;1.20;;;;;;;25.68;31.55;101851.28;5034966;28;20057;-56
2023/06/04 06:57:51;;;;;;;2.05;0.98;;;;;;;25.80;31.62;101849.63;5034945;28;20059;-56
2023/06/04 07:00:17;;;;;;;2.83;1.23;;;;;;;25.93;31.34;101853.31;5035474;28;20366;-56
2023/06/04 07:02:42;;;;;;;2.45;1.35;;;;;;;26.07;31.36;101853.34;5034719;28;20037;-56
2023/06/04 07:05:08;;;;;;;2.83;1.58;;;;;;;26.19;31.90;101858.06;5034908;28;20041;-56
2023/06/04 07:07:34;;;;;;;1.92;1.25;;;;;;;26.33;31.04;101858.94;5035409;28;20057;-56
2023/06/04 07:09:59;;;;;;;4.25;1.52;;;;;;;26.46;31.08;101859.00;5050417;28;20477;-56
2023/06/04 07:12:25;;;;;;;2.40;1.40;;;;;;;26.61;31.11;101856.91;5035491;28;20105;-56
2023/06/04 07:14:50;;;;;;;1.88;1.15;;;;;;;26.76;30.62;101857.56;5033585;28;20037;-56
2023/06/04 07:17:15;;;;;;;3.97;1.42;;;;;;;26.92;30.60;101859.06;5034135;28;20560;-56
2023/06/04 07:19:41;;;;;;;4.47;1.50;;;;;;;27.06;31.08;101856.13;5034783;28;20038;-56
2023/06/04 07:22:06;;;;;;;3.70;1.20;;;;;;;27.19;30.74;101850.59;5034812;28;20059;-56
2023/06/04 07:24:32;;;;;;;1.70;0.95;;;;;;;27.32;30.23;101854.41;5034785;28;20033;-57
2023/06/04 07:26:57;;;;;;;6.13;1.60;;;;;;;27.48;30.21;101853.97;5034529;28;20033;-57
2023/06/04 07:29:22;;;;;;;2.78;1.00;;;;;;;27.63;29.70;101851.81;5033035;28;20037;-57
2023/06/04 07:31:48;;;;;;;3.75;1.10;;;;;;;27.77;30.32;101858.97;5034738;28;20083;-56
2023/06/04 07:34:13;;;;;;;3.20;1.33;;;;;;;27.80;29.38;101833.75;5034658;28;20120;-56
2023/06/04 07:36:39;;;;;;;1.83;0.80;;;;;;;28.00;28.86;101853.78;5034257;28;20091;-56
2023/06/04 07:39:05;;;;;;;3.03;1.83;;;;;;;28.13;29.00;101856.53;5035246;28;20025;-56
2023/06/04 07:41:31;;;;;;;5.05;1.08;;;;;;;28.23;29.21;101854.13;5034267;28;20111;-56
2023/06/04 07:43:56;;;;;;;2.78;0.80;;;;;;;28.39;29.07;101846.44;5032833;28;20497;-56
2023/06/04 07:46:21;;;;;;;2.65;0.90;;;;;;;28.51;28.91;101852.91;5034456;28;20041;-56
2023/06/04 07:48:47;;;;;;;3.28;0.82;;;;;;;28.64;28.75;101850.09;5033048;28;20485;-56
2023/06/04 07:51:13;;;;;;;6.63;1.10;;;;;;;28.78;28.40;101857.22;5034294;28;20104;-56
2023/06/04 07:53:38;;;;;;;2.45;1.25;;;;;;;28.92;28.68;101850.53;5034015;28;20087;-57
2023/06/04 07:56:03;;;;;;;1.73;1.17;;;;;;;29.05;27.63;101855.94;5033953;28;20030;-56
2023/06/04 07:58:29;;;;;;;1.30;0.88;;;;;;;29.19;27.97;101851.97;5033954;28;20045;-56
2023/06/04 08:00:55;;;;;;;1.48;1.00;;;;;;;29.27;28.03;101851.72;5034241;28;20026;-56
2023/06/04 08:03:21;;;;;;;3.90;1.10;;;;;;;29.42;27.68;101843.94;5034567;28;20025;-56
2023/06/04 08:05:46;;;;;;;4.80;1.13;;;;;;;29.58;27.33;101847.13;5034044;28;20497;-56
2023/06/04 08:08:12;;;;;;;1.35;0.90;;;;;;;29.71;27.90;101842.31;5034102;28;20041;-56
2023/06/04 08:10:39;;;;;;;2.00;1.20;;;;;;;29.85;27.56;101843.00;5034098;28;20540;-56
2023/06/04 08:13:04;;;;;;;2.50;1.15;;;;;;;29.94;27.40;101841.63;5033500;28;20069;-56
2023/06/04 08:15:30;;;;;;;5.32;1.20;;;;;;;30.06;27.25;101839.78;5034113;28;20106;-56
2023/06/04 08:17:56;;;;;;;5.15;1.02;;;;;;;30.16;26.76;101848.34;5033554;28;20091;-56
2023/06/04 08:20:22;;;;;;;5.97;1.20;;;;;;;30.25;26.49;101840.56;5033322;28;20512;-56
2023/06/04 08:22:47;;;;;;;1.42;1.15;;;;;;;30.43;26.88;101846.91;5032340;28;20034;-56
2023/06/04 08:25:13;;;;;;;2.33;1.00;;;;;;;30.44;26.66;101831.19;5033634;28;20033;-56
2023/06/04 08:27:39;;;;;;;1.90;1.35;;;;;;;30.68;26.43;101857.00;5032289;28;20036;-56
2023/06/04 08:30:05;;;;;;;3.35;1.52;;;;;;;30.82;26.21;101852.94;5033867;28;20030;-57
2023/06/04 08:32:31;;;;;;;6.38;1.50;;;;;;;30.90;26.16;101847.91;5033126;28;20168;-56
2023/06/04 08:34:56;;;;;;;2.78;1.60;;;;;;;31.04;25.96;101840.25;5033573;28;20483;-56
2023/06/04 08:37:24;;;;;;;6.72;1.38;;;;;;;31.20;25.70;101841.44;5033185;28;20045;-56
2023/06/04 08:39:49;;;;;;;3.17;1.30;;;;;;;31.29;25.66;101840.84;5033349;28;20084;-56
2023/06/04 08:42:32;;;;;;;1.98;1.42;;;;;;;31.40;25.61;101836.38;5033936;28;20030;-56
2023/06/04 08:44:58;;;;;;;3.35;1.17;;;;;;;31.51;25.58;101839.19;5033274;28;20037;-56
2023/06/04 08:47:27;;;;;;;4.53;1.70;;;;;;;31.64;25.75;101843.59;5033200;28;20128;-56
2023/06/04 08:49:57;;;;;;;4.30;1.35;;;;;;;31.64;25.12;101825.06;5033448;28;20164;-56
2023/06/04 08:52:23;;;;;;;3.13;1.27;;;;;;;31.93;25.28;101842.56;5032267;28;20029;-56
2023/06/04 08:54:50;;;;;;;3.05;1.30;;;;;;;32.03;25.01;101850.28;5032827;28;20536;-56
2023/06/04 08:57:19;;;;;;;3.13;1.45;;;;;;;32.04;24.83;101847.28;5048586;28;20029;-56
2023/06/04 08:59:46;;;;;;;2.88;1.08;;;;;;;31.94;24.87;101826.78;5032990;28;20033;-56
2023/06/04 09:02:15;;;;;;;1.40;1.23;;;;;;;32.15;25.10;101856.63;5033034;28;20043;-56
2023/06/04 09:04:40;;;;;;;2.33;1.08;;;;;;;32.14;24.38;101828.06;5031818;28;20115;-57
2023/06/04 09:07:06;;;;;;;6.38;1.45;;;;;;;32.40;24.72;101859.91;5032876;28;20579;-56
2023/06/04 09:09:37;;;;;;;3.10;1.33;;;;;;;32.51;23.97;101853.47;5016142;28;20026;-57
2023/06/04 09:12:04;;;;;;;1.65;1.20;;;;;;;32.63;24.16;101847.88;5033399;28;20068;-57
2023/06/04 09:14:30;;;;;;;2.72;1.30;;;;;;;32.73;24.43;101848.03;5015370;28;20088;-56
2023/06/04 09:16:58;;;;;;;1.48;1.02;;;;;;;32.81;23.70;101856.81;5033471;28;20047;-56
2023/06/04 09:19:24;;;;;;;4.72;1.20;;;;;;;32.91;23.17;101855.31;5033227;28;20049;-56
2023/06/04 09:21:49;;;;;;;2.42;1.08;;;;;;;33.02;23.26;101844.13;5033389;28;20079;-57
2023/06/04 09:24:15;;;;;;;2.80;0.98;;;;;;;33.12;23.04;101835.97;5033188;28;20029;-57
2023/06/04 09:26:41;;;;;;;1.52;1.00;;;;;;;33.26;22.78;101840.06;5032939;28;20049;-57
2023/06/04 09:29:06;;;;;;;6.65;1.45;;;;;;;33.44;23.01;101838.09;5032736;28;20128;-57
2023/06/04 09:31:37;;;;;;;2.22;1.10;;;;;;;33.52;22.61;101841.28;5032660;28;20033;-57
2023/06/04 09:34:03;;;;;;;4.50;1.00;;;;;;;33.50;22.76;101817.63;5032946;28;20041;-57
2023/06/04 09:36:32;;;;;;;2.72;1.60;;;;;;;33.70;22.87;101831.81;5032685;28;20084;-60
2023/06/04 09:38:57;;;;;;;4.28;0.98;;;;;;;33.75;23.24;101837.47;5032559;28;20124;-57
2023/06/04 09:41:23;;;;;;;1.65;1.02;;;;;;;33.86;22.38;101837.34;5035294;28;20060;-57
2023/06/04 09:43:49;;;;;;;1.55;1.40;;;;;;;33.93;22.33;101837.97;5035301;28;20057;-57
2023/06/04 09:46:16;;;;;;;3.75;1.58;;;;;;;34.02;21.75;101841.13;5036614;28;20037;-57
2023/06/04 09:48:43;;;;;;;6.90;1.17;;;;;;;34.10;21.70;101832.34;5036449;28;20108;-57
2023/06/04 09:51:13;;;;;;;1.70;1.10;;;;;;;34.17;22.28;101832.16;5036743;28;20083;-57
2023/06/04 09:53:39;;;;;;;5.78;0.95;;;;;;;34.12;21.70;101837.66;5037003;28;20026;-57
2023/06/04 09:56:10;;;;;;;3.22;0.98;;;;;;;34.09;22.63;101829.84;5036181;28;20159;-57
2023/06/04 09:58:36;;;;;;;2.80;1.05;;;;;;;34.20;22.61;101843.59;5036367;28;20048;-57
2023/06/04 10:01:05;;;;;;;1.08;0.90;;;;;;;34.29;20.82;101841.19;5035022;28;20037;-57
2023/06/04 10:03:36;;;;;;;2.33;0.70;;;;;;;34.36;21.69;101830.69;5036865;28;20108;-57
2023/06/04 10:06:04;;;;;;;1.83;1.00;;;;;;;34.49;21.48;101830.25;5036587;28;20053;-57
2023/06/04 10:08:30;;;;;;;2.28;1.00;;;;;;;34.56;21.79;101839.25;5036261;28;20040;-57
2023/06/04 10:11:00;;;;;;;1.65;1.05;;;;;;;34.61;21.44;101844.06;5034963;28;20039;-57
2023/06/04 10:13:28;;;;;;;1.55;1.05;;;;;;;34.67;20.67;101838.28;5034710;28;20037;-57
2023/06/04 10:15:56;;;;;;;3.83;1.17;;;;;;;34.77;21.09;101838.34;5036099;28;20040;-57
2023/06/04 10:18:22;;;;;;;2.30;1.00;;;;;;;34.86;20.55;101847.91;5036038;28;20077;-57
2023/06/04 10:20:47;;;;;;;4.03;1.55;;;;;;;34.91;21.08;101839.59;5034516;28;20084;-58
2023/06/04 10:23:13;;;;;;;0.82;0.77;;;;;;;34.91;21.34;101820.09;5034568;28;20408;-57
2023/06/04 10:25:38;;;;;;;1.95;1.27;;;;;;;35.08;20.96;101834.75;5034617;28;20041;-57
2023/06/04 10:28:04;;;;;;;3.53;1.00;;;;;;;35.19;21.18;101830.06;5034545;28;20041;-57
2023/06/04 10:30:30;;;;;;;2.70;1.00;;;;;;;35.14;20.59;101792.97;5036038;28;20021;-57
2023/06/04 10:32:57;;;;;;;3.22;1.23;;;;;;;35.54;20.82;101826.69;5035624;28;20497;-57
2023/06/04 10:35:32;;;;;;;2.25;0.88;;;;;;;35.69;20.39;101825.91;5034359;28;20074;-57
2023/06/04 10:38:09;;;;;;;1.42;0.90;;;;;;;35.79;20.59;101821.25;5035966;28;20117;-56
2023/06/04 10:40:35;;;;;;;4.30;0.88;;;;;;;35.88;20.49;101827.94;5034716;28;20171;-57
2023/06/04 10:43:11;;;;;;;4.18;0.82;;;;;;;35.96;20.30;101835.78;5035855;28;20080;-57
2023/06/04 10:45:37;;;;;;;2.42;1.45;;;;;;;35.94;20.10;101832.44;5036021;28;20104;-58
2023/06/04 10:48:05;;;;;;;5.18;1.60;;;;;;;35.91;20.00;101829.34;5036196;28;20072;-57
2023/06/04 10:50:32;;;;;;;1.77;0.90;;;;;;;35.97;20.04;101820.75;5035589;28;20041;-57
2023/06/04 10:52:58;;;;;;;1.17;0.75;;;;;;;36.13;19.88;101821.66;5035839;28;20034;-57
2023/06/04 10:55:24;;;;;;;3.50;0.90;;;;;;;36.27;19.76;101813.59;5034376;28;20045;-58
2023/06/04 10:58:00;;;;;;;2.15;1.23;;;;;;;36.29;19.37;101795.47;5035429;28;20414;-57
2023/06/04 11:00:46;;;;;;;1.58;1.20;;;;;;;36.59;19.58;101822.59;5035845;28;20033;-57
2023/06/04 11:03:12;;;;;;;3.22;0.88;;;;;;;36.80;19.94;101813.09;5035766;28;20083;-57
2023/06/04 11:05:44;;;;;;;1.98;1.30;;;;;;;36.99;19.37;101817.06;5034302;28;20468;-58
2023/06/04 11:08:13;;;;;;;1.60;1.00;;;;;;;37.10;18.55;101807.53;5035450;28;20048;-60
2023/06/04 11:10:40;;;;;;;7.80;1.83;;;;;;;37.21;18.62;101820.38;5035506;28;20041;-60
2023/06/04 11:13:07;;;;;;;2.80;0.90;;;;;;;37.34;18.70;101810.53;5033668;28;20405;-60
2023/06/04 11:15:43;;;;;;;4.40;1.02;;;;;;;37.49;18.80;101804.94;5035813;28;20025;-60
2023/06/04 11:18:16;;;;;;;1.70;0.95;;;;;;;37.68;18.19;101803.19;5035286;28;20037;-60
2023/06/04 11:20:44;;;;;;;3.63;0.95;;;;;;;37.67;18.02;101790.31;5033742;28;20033;-60
2023/06/04 11:23:11;;;;;;;2.53;1.27;;;;;;;37.84;17.94;101801.97;5035252;28;20120;-60